sensor_id;sensor_type;location;lat;lon;timestamp;P1;durP1;ratioP1;P2;durP2;ratioP2
66987;SDS011;53908;51.464;-2.588;2022-08-19T00:00:06;1.55;;;0.70;;
66987;SDS011;53908;51.464;-2.588;2022-08-19T00:02:34;1.20;;;0.50;;
66987;SDS011;53908;51.464;-2.588;2022-08-19T00:04:59;1.00;;;0.50;;
66987;SDS011;53908;51.464;-2.588;2022-08-19T00:07:25;0.30;;;0.30;;
66987;SDS011;53908;51.464;-2.588;2022-08-19T00:09:50;1.17;;;0.40;;
66987;SDS011;53908;51.464;-2.588;2022-08-19T00:12:16;0.75;;;0.40;;
66987;SDS011;53908;51.464;-2.588;2022-08-19T00:14:41;1.15;;;0.70;;
66987;SDS011;53908;51.464;-2.588;2022-08-19T00:17:08;0.80;;;0.50;;
66987;SDS011;53908;51.464;-2.588;2022-08-19T00:19:34;2.80;;;0.80;;
66987;SDS011;53908;51.464;-2.588;2022-08-19T00:22:00;3.67;;;0.77;;
66987;SDS011;53908;51.464;-2.588;2022-08-19T00:24:27;6.13;;;0.90;;
66987;SDS011;53908;51.464;-2.588;2022-08-19T00:26:54;5.45;;;0.88;;
66987;SDS011;53908;51.464;-2.588;2022-08-19T00:29:20;5.43;;;1.25;;
66987;SDS011;53908;51.464;-2.588;2022-08-19T00:31:46;5.65;;;0.80;;
66987;SDS011;53908;51.464;-2.588;2022-08-19T00:34:12;9.68;;;1.00;;
66987;SDS011;53908;51.464;-2.588;2022-08-19T00:36:39;6.13;;;1.20;;
66987;SDS011;53908;51.464;-2.588;2022-08-19T00:39:05;7.32;;;1.00;;
66987;SDS011;53908;51.464;-2.588;2022-08-19T00:41:31;3.60;;;0.90;;
66987;SDS011;53908;51.464;-2.588;2022-08-19T00:44:08;6.15;;;0.90;;
66987;SDS011;53908;51.464;-2.588;2022-08-19T00:46:34;6.20;;;1.00;;
66987;SDS011;53908;51.464;-2.588;2022-08-19T00:49:02;2.05;;;0.70;;
66987;SDS011;53908;51.464;-2.588;2022-08-19T00:51:35;4.45;;;0.80;;
66987;SDS011;53908;51.464;-2.588;2022-08-19T00:54:01;5.65;;;0.73;;
66987;SDS011;53908;51.464;-2.588;2022-08-19T00:56:27;4.65;;;0.90;;
66987;SDS011;53908;51.464;-2.588;2022-08-19T00:58:54;5.68;;;0.80;;
66987;SDS011;53908;51.464;-2.588;2022-08-19T01:01:20;3.28;;;0.80;;
66987;SDS011;53908;51.464;-2.588;2022-08-19T01:03:46;3.88;;;0.70;;
66987;SDS011;53908;51.464;-2.588;2022-08-19T01:06:11;8.02;;;1.00;;
66987;SDS011;53908;51.464;-2.588;2022-08-19T01:08:37;4.00;;;0.82;;
66987;SDS011;53908;51.464;-2.588;2022-08-19T01:11:02;2.33;;;0.70;;
66987;SDS011;53908;51.464;-2.588;2022-08-19T01:13:29;2.50;;;0.75;;
66987;SDS011;53908;51.464;-2.588;2022-08-19T01:16:03;1.77;;;0.80;;
66987;SDS011;53908;51.464;-2.588;2022-08-19T01:18:31;1.23;;;0.60;;
66987;SDS011;53908;51.464;-2.588;2022-08-19T01:20:59;1.73;;;0.65;;
66987;SDS011;53908;51.464;-2.588;2022-08-19T01:23:27;3.30;;;0.70;;
66987;SDS011;53908;51.464;-2.588;2022-08-19T01:26:07;2.72;;;0.65;;
66987;SDS011;53908;51.464;-2.588;2022-08-19T01:28:35;2.65;;;0.70;;
66987;SDS011;53908;51.464;-2.588;2022-08-19T01:31:01;1.75;;;0.73;;
66987;SDS011;53908;51.464;-2.588;2022-08-19T01:33:27;1.77;;;0.70;;
66987;SDS011;53908;51.464;-2.588;2022-08-19T01:36:03;2.05;;;0.60;;
66987;SDS011;53908;51.464;-2.588;2022-08-19T01:38:30;2.08;;;0.73;;
66987;SDS011;53908;51.464;-2.588;2022-08-19T01:40:56;2.00;;;0.70;;
66987;SDS011;53908;51.464;-2.588;2022-08-19T01:43:22;3.03;;;0.80;;
66987;SDS011;53908;51.464;-2.588;2022-08-19T01:45:47;3.55;;;0.90;;
66987;SDS011;53908;51.464;-2.588;2022-08-19T01:48:13;3.08;;;1.00;;
66987;SDS011;53908;51.464;-2.588;2022-08-19T01:50:39;2.20;;;0.90;;
66987;SDS011;53908;51.464;-2.588;2022-08-19T01:53:06;3.13;;;0.82;;
66987;SDS011;53908;51.464;-2.588;2022-08-19T01:55:39;2.13;;;0.90;;
66987;SDS011;53908;51.464;-2.588;2022-08-19T01:58:06;2.50;;;1.00;;
66987;SDS011;53908;51.464;-2.588;2022-08-19T02:00:34;4.05;;;1.02;;
66987;SDS011;53908;51.464;-2.588;2022-08-19T02:02:59;5.55;;;1.20;;
66987;SDS011;53908;51.464;-2.588;2022-08-19T02:05:26;4.13;;;1.17;;
66987;SDS011;53908;51.464;-2.588;2022-08-19T02:07:54;5.10;;;1.27;;
66987;SDS011;53908;51.464;-2.588;2022-08-19T02:10:21;5.45;;;1.30;;
66987;SDS011;53908;51.464;-2.588;2022-08-19T02:12:47;6.93;;;1.38;;
66987;SDS011;53908;51.464;-2.588;2022-08-19T02:15:14;5.50;;;1.25;;
66987;SDS011;53908;51.464;-2.588;2022-08-19T02:17:40;3.45;;;1.38;;
66987;SDS011;53908;51.464;-2.588;2022-08-19T02:20:06;4.93;;;1.40;;
66987;SDS011;53908;51.464;-2.588;2022-08-19T02:22:32;4.57;;;1.40;;
66987;SDS011;53908;51.464;-2.588;2022-08-19T02:24:58;9.15;;;1.60;;
66987;SDS011;53908;51.464;-2.588;2022-08-19T02:27:23;4.63;;;1.42;;
66987;SDS011;53908;51.464;-2.588;2022-08-19T02:29:50;6.72;;;1.60;;
66987;SDS011;53908;51.464;-2.588;2022-08-19T02:32:16;3.40;;;1.27;;
66987;SDS011;53908;51.464;-2.588;2022-08-19T02:34:43;4.70;;;1.58;;
66987;SDS011;53908;51.464;-2.588;2022-08-19T02:37:09;4.97;;;1.50;;
66987;SDS011;53908;51.464;-2.588;2022-08-19T02:39:54;8.30;;;1.48;;
66987;SDS011;53908;51.464;-2.588;2022-08-19T02:42:20;8.85;;;1.50;;
66987;SDS011;53908;51.464;-2.588;2022-08-19T02:44:45;5.53;;;1.30;;
66987;SDS011;53908;51.464;-2.588;2022-08-19T02:47:10;5.13;;;1.30;;
66987;SDS011;53908;51.464;-2.588;2022-08-19T02:49:38;7.82;;;1.60;;
66987;SDS011;53908;51.464;-2.588;2022-08-19T02:52:03;7.78;;;1.65;;
66987;SDS011;53908;51.464;-2.588;2022-08-19T02:54:29;5.35;;;1.50;;
66987;SDS011;53908;51.464;-2.588;2022-08-19T02:56:54;5.90;;;1.52;;
66987;SDS011;53908;51.464;-2.588;2022-08-19T02:59:19;5.53;;;1.42;;
66987;SDS011;53908;51.464;-2.588;2022-08-19T03:01:45;11.55;;;1.80;;
66987;SDS011;53908;51.464;-2.588;2022-08-19T03:04:12;6.93;;;1.58;;
66987;SDS011;53908;51.464;-2.588;2022-08-19T03:06:39;5.03;;;1.67;;
66987;SDS011;53908;51.464;-2.588;2022-08-19T03:09:06;6.32;;;1.70;;
66987;SDS011;53908;51.464;-2.588;2022-08-19T03:11:32;6.72;;;1.45;;
66987;SDS011;53908;51.464;-2.588;2022-08-19T03:13:58;5.70;;;1.65;;
66987;SDS011;53908;51.464;-2.588;2022-08-19T03:16:26;8.30;;;1.77;;
66987;SDS011;53908;51.464;-2.588;2022-08-19T03:18:55;7.55;;;1.70;;
66987;SDS011;53908;51.464;-2.588;2022-08-19T03:21:23;8.40;;;1.77;;
66987;SDS011;53908;51.464;-2.588;2022-08-19T03:23:49;11.38;;;1.73;;
66987;SDS011;53908;51.464;-2.588;2022-08-19T03:26:18;8.50;;;1.40;;
66987;SDS011;53908;51.464;-2.588;2022-08-19T03:28:44;8.45;;;1.60;;
66987;SDS011;53908;51.464;-2.588;2022-08-19T03:31:14;7.15;;;2.25;;
66987;SDS011;53908;51.464;-2.588;2022-08-19T03:33:39;6.10;;;1.95;;
66987;SDS011;53908;51.464;-2.588;2022-08-19T03:36:07;10.43;;;2.13;;
66987;SDS011;53908;51.464;-2.588;2022-08-19T03:38:39;14.43;;;2.10;;
66987;SDS011;53908;51.464;-2.588;2022-08-19T03:41:08;6.03;;;1.58;;
66987;SDS011;53908;51.464;-2.588;2022-08-19T03:43:35;9.88;;;2.00;;
66987;SDS011;53908;51.464;-2.588;2022-08-19T03:46:03;11.70;;;2.00;;
66987;SDS011;53908;51.464;-2.588;2022-08-19T03:48:30;12.65;;;2.28;;
66987;SDS011;53908;51.464;-2.588;2022-08-19T03:50:56;9.68;;;2.00;;
66987;SDS011;53908;51.464;-2.588;2022-08-19T03:53:23;12.95;;;2.20;;
66987;SDS011;53908;51.464;-2.588;2022-08-19T03:55:50;8.50;;;2.00;;
66987;SDS011;53908;51.464;-2.588;2022-08-19T03:58:16;8.65;;;1.98;;
66987;SDS011;53908;51.464;-2.588;2022-08-19T04:00:42;15.25;;;2.40;;
66987;SDS011;53908;51.464;-2.588;2022-08-19T04:03:07;13.75;;;2.38;;
66987;SDS011;53908;51.464;-2.588;2022-08-19T04:05:33;13.27;;;2.67;;
66987;SDS011;53908;51.464;-2.588;2022-08-19T04:07:58;13.88;;;2.85;;
66987;SDS011;53908;51.464;-2.588;2022-08-19T04:10:24;14.85;;;2.67;;
66987;SDS011;53908;51.464;-2.588;2022-08-19T04:12:50;14.88;;;2.78;;
66987;SDS011;53908;51.464;-2.588;2022-08-19T04:15:15;15.25;;;2.88;;
66987;SDS011;53908;51.464;-2.588;2022-08-19T04:17:41;16.63;;;3.45;;
66987;SDS011;53908;51.464;-2.588;2022-08-19T04:20:06;12.15;;;2.83;;
66987;SDS011;53908;51.464;-2.588;2022-08-19T04:22:32;10.73;;;2.85;;
66987;SDS011;53908;51.464;-2.588;2022-08-19T04:24:57;14.80;;;2.85;;
66987;SDS011;53908;51.464;-2.588;2022-08-19T04:27:23;12.27;;;2.85;;
66987;SDS011;53908;51.464;-2.588;2022-08-19T04:29:48;15.00;;;3.20;;
66987;SDS011;53908;51.464;-2.588;2022-08-19T04:32:14;13.63;;;3.33;;
66987;SDS011;53908;51.464;-2.588;2022-08-19T04:34:40;15.05;;;3.22;;
66987;SDS011;53908;51.464;-2.588;2022-08-19T04:37:07;15.77;;;2.97;;
66987;SDS011;53908;51.464;-2.588;2022-08-19T04:39:37;16.02;;;2.92;;
66987;SDS011;53908;51.464;-2.588;2022-08-19T04:42:22;19.67;;;3.42;;
66987;SDS011;53908;51.464;-2.588;2022-08-19T04:45:06;18.02;;;2.97;;
66987;SDS011;53908;51.464;-2.588;2022-08-19T04:47:38;17.90;;;3.13;;
66987;SDS011;53908;51.464;-2.588;2022-08-19T04:50:05;11.82;;;2.80;;
66987;SDS011;53908;51.464;-2.588;2022-08-19T04:52:31;14.85;;;3.47;;
66987;SDS011;53908;51.464;-2.588;2022-08-19T04:54:57;25.40;;;4.22;;
66987;SDS011;53908;51.464;-2.588;2022-08-19T04:57:23;21.50;;;3.42;;
66987;SDS011;53908;51.464;-2.588;2022-08-19T04:59:49;12.57;;;3.10;;
66987;SDS011;53908;51.464;-2.588;2022-08-19T05:02:14;19.80;;;4.03;;
66987;SDS011;53908;51.464;-2.588;2022-08-19T05:04:40;17.58;;;3.60;;
66987;SDS011;53908;51.464;-2.588;2022-08-19T05:07:06;15.38;;;3.70;;
66987;SDS011;53908;51.464;-2.588;2022-08-19T05:09:32;16.83;;;3.72;;
66987;SDS011;53908;51.464;-2.588;2022-08-19T05:11:57;15.05;;;3.67;;
66987;SDS011;53908;51.464;-2.588;2022-08-19T05:14:23;13.95;;;3.58;;
66987;SDS011;53908;51.464;-2.588;2022-08-19T05:16:48;19.83;;;3.78;;
66987;SDS011;53908;51.464;-2.588;2022-08-19T05:19:14;20.15;;;4.38;;
66987;SDS011;53908;51.464;-2.588;2022-08-19T05:22:15;15.40;;;3.10;;
66987;SDS011;53908;51.464;-2.588;2022-08-19T05:25:08;13.30;;;3.15;;
66987;SDS011;53908;51.464;-2.588;2022-08-19T05:27:35;19.77;;;3.75;;
66987;SDS011;53908;51.464;-2.588;2022-08-19T05:30:01;15.30;;;3.25;;
66987;SDS011;53908;51.464;-2.588;2022-08-19T05:32:26;13.10;;;3.30;;
66987;SDS011;53908;51.464;-2.588;2022-08-19T05:34:52;12.05;;;3.28;;
66987;SDS011;53908;51.464;-2.588;2022-08-19T05:37:18;9.18;;;3.08;;
66987;SDS011;53908;51.464;-2.588;2022-08-19T05:39:43;15.50;;;4.00;;
66987;SDS011;53908;51.464;-2.588;2022-08-19T05:42:09;11.75;;;2.95;;
66987;SDS011;53908;51.464;-2.588;2022-08-19T05:44:37;15.32;;;3.05;;
66987;SDS011;53908;51.464;-2.588;2022-08-19T05:47:09;14.57;;;3.28;;
66987;SDS011;53908;51.464;-2.588;2022-08-19T05:49:35;19.73;;;3.38;;
66987;SDS011;53908;51.464;-2.588;2022-08-19T05:52:05;10.48;;;3.20;;
66987;SDS011;53908;51.464;-2.588;2022-08-19T05:54:32;14.98;;;4.10;;
66987;SDS011;53908;51.464;-2.588;2022-08-19T05:56:58;9.45;;;3.03;;
66987;SDS011;53908;51.464;-2.588;2022-08-19T05:59:23;9.95;;;2.80;;
66987;SDS011;53908;51.464;-2.588;2022-08-19T06:01:50;11.38;;;2.70;;
66987;SDS011;53908;51.464;-2.588;2022-08-19T06:04:17;12.02;;;2.50;;
66987;SDS011;53908;51.464;-2.588;2022-08-19T06:06:44;9.07;;;2.33;;
66987;SDS011;53908;51.464;-2.588;2022-08-19T06:09:11;10.25;;;2.42;;
66987;SDS011;53908;51.464;-2.588;2022-08-19T06:11:37;9.60;;;2.33;;
66987;SDS011;53908;51.464;-2.588;2022-08-19T06:14:06;7.50;;;2.80;;
66987;SDS011;53908;51.464;-2.588;2022-08-19T06:16:35;7.85;;;2.33;;
66987;SDS011;53908;51.464;-2.588;2022-08-19T06:19:02;9.25;;;2.00;;
66987;SDS011;53908;51.464;-2.588;2022-08-19T06:21:29;8.40;;;2.00;;
66987;SDS011;53908;51.464;-2.588;2022-08-19T06:23:55;5.88;;;1.88;;
66987;SDS011;53908;51.464;-2.588;2022-08-19T06:26:22;7.55;;;1.83;;
66987;SDS011;53908;51.464;-2.588;2022-08-19T06:28:49;11.63;;;2.10;;
66987;SDS011;53908;51.464;-2.588;2022-08-19T06:31:16;5.97;;;1.85;;
66987;SDS011;53908;51.464;-2.588;2022-08-19T06:33:43;6.20;;;1.80;;
66987;SDS011;53908;51.464;-2.588;2022-08-19T06:36:43;9.43;;;1.90;;
66987;SDS011;53908;51.464;-2.588;2022-08-19T06:39:05;6.32;;;2.00;;
66987;SDS011;53908;51.464;-2.588;2022-08-19T06:41:36;7.53;;;1.98;;
66987;SDS011;53908;51.464;-2.588;2022-08-19T06:44:06;7.57;;;1.67;;
66987;SDS011;53908;51.464;-2.588;2022-08-19T06:46:32;5.25;;;1.77;;
66987;SDS011;53908;51.464;-2.588;2022-08-19T06:48:57;7.55;;;1.83;;
66987;SDS011;53908;51.464;-2.588;2022-08-19T06:51:23;6.05;;;1.80;;
66987;SDS011;53908;51.464;-2.588;2022-08-19T06:53:51;8.57;;;1.85;;
66987;SDS011;53908;51.464;-2.588;2022-08-19T06:56:19;8.75;;;2.05;;
66987;SDS011;53908;51.464;-2.588;2022-08-19T06:58:51;9.55;;;2.17;;
66987;SDS011;53908;51.464;-2.588;2022-08-19T07:01:18;11.48;;;2.28;;
66987;SDS011;53908;51.464;-2.588;2022-08-19T07:03:44;7.93;;;2.20;;
66987;SDS011;53908;51.464;-2.588;2022-08-19T07:06:12;4.22;;;1.50;;
66987;SDS011;53908;51.464;-2.588;2022-08-19T07:08:42;6.73;;;1.63;;
66987;SDS011;53908;51.464;-2.588;2022-08-19T07:11:10;6.18;;;2.15;;
66987;SDS011;53908;51.464;-2.588;2022-08-19T07:13:38;9.45;;;2.13;;
66987;SDS011;53908;51.464;-2.588;2022-08-19T07:16:07;8.95;;;2.42;;
66987;SDS011;53908;51.464;-2.588;2022-08-19T07:18:33;5.75;;;2.00;;
66987;SDS011;53908;51.464;-2.588;2022-08-19T07:21:19;5.28;;;1.80;;
66987;SDS011;53908;51.464;-2.588;2022-08-19T07:23:46;8.15;;;1.95;;
66987;SDS011;53908;51.464;-2.588;2022-08-19T07:26:14;8.55;;;1.85;;
66987;SDS011;53908;51.464;-2.588;2022-08-19T07:28:44;6.65;;;2.00;;
66987;SDS011;53908;51.464;-2.588;2022-08-19T07:31:11;8.27;;;2.28;;
66987;SDS011;53908;51.464;-2.588;2022-08-19T07:33:43;7.15;;;1.83;;
66987;SDS011;53908;51.464;-2.588;2022-08-19T07:36:09;11.68;;;1.90;;
66987;SDS011;53908;51.464;-2.588;2022-08-19T07:38:36;10.43;;;2.00;;
66987;SDS011;53908;51.464;-2.588;2022-08-19T07:41:02;11.05;;;2.90;;
66987;SDS011;53908;51.464;-2.588;2022-08-19T07:43:28;12.00;;;2.92;;
66987;SDS011;53908;51.464;-2.588;2022-08-19T07:45:54;8.02;;;1.92;;
66987;SDS011;53908;51.464;-2.588;2022-08-19T07:48:25;8.95;;;2.08;;
66987;SDS011;53908;51.464;-2.588;2022-08-19T07:50:52;13.45;;;2.28;;
66987;SDS011;53908;51.464;-2.588;2022-08-19T07:53:20;9.18;;;1.90;;
66987;SDS011;53908;51.464;-2.588;2022-08-19T07:55:48;7.13;;;2.15;;
66987;SDS011;53908;51.464;-2.588;2022-08-19T07:58:15;9.80;;;2.35;;
66987;SDS011;53908;51.464;-2.588;2022-08-19T08:00:42;7.50;;;2.45;;
66987;SDS011;53908;51.464;-2.588;2022-08-19T08:03:08;9.60;;;2.33;;
66987;SDS011;53908;51.464;-2.588;2022-08-19T08:05:34;6.00;;;2.03;;
66987;SDS011;53908;51.464;-2.588;2022-08-19T08:08:18;9.13;;;2.00;;
66987;SDS011;53908;51.464;-2.588;2022-08-19T08:11:02;9.48;;;2.60;;
66987;SDS011;53908;51.464;-2.588;2022-08-19T08:13:28;12.30;;;2.75;;
66987;SDS011;53908;51.464;-2.588;2022-08-19T08:15:53;11.45;;;2.10;;
66987;SDS011;53908;51.464;-2.588;2022-08-19T08:18:19;33.03;;;15.70;;
66987;SDS011;53908;51.464;-2.588;2022-08-19T08:20:45;27.15;;;15.55;;
66987;SDS011;53908;51.464;-2.588;2022-08-19T08:23:11;7.10;;;2.30;;
66987;SDS011;53908;51.464;-2.588;2022-08-19T08:25:49;13.40;;;2.42;;
66987;SDS011;53908;51.464;-2.588;2022-08-19T08:28:18;18.08;;;2.80;;
66987;SDS011;53908;51.464;-2.588;2022-08-19T08:30:45;11.73;;;2.85;;
66987;SDS011;53908;51.464;-2.588;2022-08-19T08:33:12;8.98;;;2.90;;
66987;SDS011;53908;51.464;-2.588;2022-08-19T08:35:39;7.38;;;2.08;;
66987;SDS011;53908;51.464;-2.588;2022-08-19T08:38:06;10.25;;;2.50;;
66987;SDS011;53908;51.464;-2.588;2022-08-19T08:40:39;8.20;;;2.00;;
66987;SDS011;53908;51.464;-2.588;2022-08-19T08:43:29;8.07;;;2.00;;
66987;SDS011;53908;51.464;-2.588;2022-08-19T08:51:08;9.73;;;2.00;;
66987;SDS011;53908;51.464;-2.588;2022-08-19T08:53:35;6.65;;;2.10;;
66987;SDS011;53908;51.464;-2.588;2022-08-19T08:56:02;12.23;;;2.17;;
66987;SDS011;53908;51.464;-2.588;2022-08-19T08:58:33;8.45;;;1.98;;
66987;SDS011;53908;51.464;-2.588;2022-08-19T09:01:08;8.27;;;1.95;;
66987;SDS011;53908;51.464;-2.588;2022-08-19T09:03:36;7.07;;;2.00;;
66987;SDS011;53908;51.464;-2.588;2022-08-19T09:06:03;7.22;;;2.20;;
66987;SDS011;53908;51.464;-2.588;2022-08-19T09:17:11;11.75;;;2.40;;
66987;SDS011;53908;51.464;-2.588;2022-08-19T09:19:51;9.57;;;2.13;;
66987;SDS011;53908;51.464;-2.588;2022-08-19T09:22:20;7.57;;;2.35;;
66987;SDS011;53908;51.464;-2.588;2022-08-19T09:24:47;10.10;;;2.25;;
66987;SDS011;53908;51.464;-2.588;2022-08-19T09:27:17;6.93;;;1.90;;
66987;SDS011;53908;51.464;-2.588;2022-08-19T09:29:43;9.00;;;2.03;;
66987;SDS011;53908;51.464;-2.588;2022-08-19T09:32:09;7.07;;;2.08;;
66987;SDS011;53908;51.464;-2.588;2022-08-19T09:34:34;9.82;;;2.10;;
66987;SDS011;53908;51.464;-2.588;2022-08-19T09:37:00;6.05;;;1.77;;
66987;SDS011;53908;51.464;-2.588;2022-08-19T09:39:26;6.32;;;1.60;;
66987;SDS011;53908;51.464;-2.588;2022-08-19T09:41:51;9.75;;;1.95;;
66987;SDS011;53908;51.464;-2.588;2022-08-19T09:44:18;6.70;;;2.08;;
66987;SDS011;53908;51.464;-2.588;2022-08-19T09:46:45;7.57;;;1.98;;
66987;SDS011;53908;51.464;-2.588;2022-08-19T09:49:12;6.10;;;1.80;;
66987;SDS011;53908;51.464;-2.588;2022-08-19T09:51:37;8.90;;;2.10;;
66987;SDS011;53908;51.464;-2.588;2022-08-19T09:54:03;7.65;;;2.20;;
66987;SDS011;53908;51.464;-2.588;2022-08-19T09:56:29;10.32;;;2.47;;
66987;SDS011;53908;51.464;-2.588;2022-08-19T09:58:57;8.45;;;1.80;;
66987;SDS011;53908;51.464;-2.588;2022-08-19T10:01:28;8.03;;;2.30;;
66987;SDS011;53908;51.464;-2.588;2022-08-19T10:03:57;8.05;;;2.15;;
66987;SDS011;53908;51.464;-2.588;2022-08-19T10:06:27;10.25;;;2.20;;
66987;SDS011;53908;51.464;-2.588;2022-08-19T10:08:58;13.00;;;2.22;;
66987;SDS011;53908;51.464;-2.588;2022-08-19T10:11:24;10.80;;;2.40;;
66987;SDS011;53908;51.464;-2.588;2022-08-19T10:13:51;9.10;;;2.22;;
66987;SDS011;53908;51.464;-2.588;2022-08-19T10:16:18;9.38;;;1.90;;
66987;SDS011;53908;51.464;-2.588;2022-08-19T10:18:47;8.98;;;2.53;;
66987;SDS011;53908;51.464;-2.588;2022-08-19T10:21:14;10.38;;;2.47;;
66987;SDS011;53908;51.464;-2.588;2022-08-19T10:23:42;10.15;;;2.40;;
66987;SDS011;53908;51.464;-2.588;2022-08-19T10:26:10;11.05;;;2.10;;
66987;SDS011;53908;51.464;-2.588;2022-08-19T10:28:38;14.73;;;2.40;;
66987;SDS011;53908;51.464;-2.588;2022-08-19T10:31:04;8.95;;;2.20;;
66987;SDS011;53908;51.464;-2.588;2022-08-19T10:33:35;10.75;;;1.92;;
66987;SDS011;53908;51.464;-2.588;2022-08-19T10:36:05;11.23;;;2.00;;
66987;SDS011;53908;51.464;-2.588;2022-08-19T10:38:42;11.10;;;2.20;;
66987;SDS011;53908;51.464;-2.588;2022-08-19T10:41:14;15.80;;;2.50;;
66987;SDS011;53908;51.464;-2.588;2022-08-19T10:43:47;10.10;;;2.63;;
66987;SDS011;53908;51.464;-2.588;2022-08-19T10:46:14;11.55;;;2.00;;
66987;SDS011;53908;51.464;-2.588;2022-08-19T10:48:40;11.35;;;2.08;;
66987;SDS011;53908;51.464;-2.588;2022-08-19T10:51:06;8.60;;;2.20;;
66987;SDS011;53908;51.464;-2.588;2022-08-19T10:53:50;9.65;;;2.42;;
66987;SDS011;53908;51.464;-2.588;2022-08-19T10:56:16;10.93;;;2.30;;
66987;SDS011;53908;51.464;-2.588;2022-08-19T10:59:01;10.65;;;2.40;;
66987;SDS011;53908;51.464;-2.588;2022-08-19T11:01:28;11.82;;;2.92;;
66987;SDS011;53908;51.464;-2.588;2022-08-19T11:03:55;7.55;;;2.38;;
66987;SDS011;53908;51.464;-2.588;2022-08-19T11:06:22;10.55;;;2.50;;
66987;SDS011;53908;51.464;-2.588;2022-08-19T11:08:47;9.20;;;2.25;;
66987;SDS011;53908;51.464;-2.588;2022-08-19T11:11:13;9.13;;;1.80;;
66987;SDS011;53908;51.464;-2.588;2022-08-19T11:13:39;14.73;;;2.50;;
66987;SDS011;53908;51.464;-2.588;2022-08-19T11:16:07;10.35;;;2.58;;
66987;SDS011;53908;51.464;-2.588;2022-08-19T11:18:48;10.80;;;2.40;;
66987;SDS011;53908;51.464;-2.588;2022-08-19T11:21:16;8.93;;;2.45;;
66987;SDS011;53908;51.464;-2.588;2022-08-19T11:23:42;8.45;;;2.55;;
66987;SDS011;53908;51.464;-2.588;2022-08-19T11:26:08;10.23;;;2.50;;
66987;SDS011;53908;51.464;-2.588;2022-08-19T11:28:34;9.25;;;2.25;;
66987;SDS011;53908;51.464;-2.588;2022-08-19T11:31:00;11.68;;;2.40;;
66987;SDS011;53908;51.464;-2.588;2022-08-19T11:33:28;8.52;;;2.47;;
66987;SDS011;53908;51.464;-2.588;2022-08-19T11:35:56;8.18;;;2.10;;
66987;SDS011;53908;51.464;-2.588;2022-08-19T11:38:23;10.45;;;2.22;;
66987;SDS011;53908;51.464;-2.588;2022-08-19T11:40:55;11.45;;;2.28;;
66987;SDS011;53908;51.464;-2.588;2022-08-19T11:43:24;10.90;;;2.30;;
66987;SDS011;53908;51.464;-2.588;2022-08-19T11:45:51;11.10;;;2.20;;
66987;SDS011;53908;51.464;-2.588;2022-08-19T11:48:18;10.77;;;2.72;;
66987;SDS011;53908;51.464;-2.588;2022-08-19T11:50:47;11.70;;;2.50;;
66987;SDS011;53908;51.464;-2.588;2022-08-19T11:53:16;14.15;;;2.40;;
66987;SDS011;53908;51.464;-2.588;2022-08-19T11:55:44;12.23;;;2.42;;
66987;SDS011;53908;51.464;-2.588;2022-08-19T11:58:10;9.38;;;2.05;;
66987;SDS011;53908;51.464;-2.588;2022-08-19T12:00:36;9.63;;;2.33;;
66987;SDS011;53908;51.464;-2.588;2022-08-19T12:03:02;9.38;;;2.00;;
66987;SDS011;53908;51.464;-2.588;2022-08-19T12:05:28;10.20;;;2.65;;
66987;SDS011;53908;51.464;-2.588;2022-08-19T12:07:53;11.88;;;2.25;;
66987;SDS011;53908;51.464;-2.588;2022-08-19T12:10:19;9.32;;;2.45;;
66987;SDS011;53908;51.464;-2.588;2022-08-19T12:12:45;18.40;;;5.97;;
66987;SDS011;53908;51.464;-2.588;2022-08-19T12:15:11;12.27;;;4.00;;
66987;SDS011;53908;51.464;-2.588;2022-08-19T12:17:37;12.27;;;2.33;;
66987;SDS011;53908;51.464;-2.588;2022-08-19T12:20:03;19.60;;;4.80;;
66987;SDS011;53908;51.464;-2.588;2022-08-19T12:22:30;10.75;;;2.45;;
66987;SDS011;53908;51.464;-2.588;2022-08-19T12:24:55;11.45;;;2.60;;
66987;SDS011;53908;51.464;-2.588;2022-08-19T12:27:21;10.82;;;3.10;;
66987;SDS011;53908;51.464;-2.588;2022-08-19T12:29:46;9.65;;;2.40;;
66987;SDS011;53908;51.464;-2.588;2022-08-19T12:32:12;8.38;;;1.92;;
66987;SDS011;53908;51.464;-2.588;2022-08-19T12:34:38;13.73;;;2.20;;
66987;SDS011;53908;51.464;-2.588;2022-08-19T12:37:04;10.90;;;2.80;;
66987;SDS011;53908;51.464;-2.588;2022-08-19T12:39:38;11.88;;;2.15;;
66987;SDS011;53908;51.464;-2.588;2022-08-19T12:42:05;14.85;;;2.15;;
66987;SDS011;53908;51.464;-2.588;2022-08-19T12:44:30;9.77;;;2.10;;
66987;SDS011;53908;51.464;-2.588;2022-08-19T12:46:57;7.47;;;1.70;;
66987;SDS011;53908;51.464;-2.588;2022-08-19T12:49:23;9.02;;;2.22;;
66987;SDS011;53908;51.464;-2.588;2022-08-19T12:51:49;8.35;;;2.15;;
66987;SDS011;53908;51.464;-2.588;2022-08-19T12:54:15;13.18;;;1.92;;
66987;SDS011;53908;51.464;-2.588;2022-08-19T12:56:41;9.73;;;1.67;;
66987;SDS011;53908;51.464;-2.588;2022-08-19T12:59:07;8.52;;;1.90;;
66987;SDS011;53908;51.464;-2.588;2022-08-19T13:01:33;6.65;;;1.70;;
66987;SDS011;53908;51.464;-2.588;2022-08-19T13:03:59;6.97;;;1.67;;
66987;SDS011;53908;51.464;-2.588;2022-08-19T13:06:25;11.00;;;2.10;;
66987;SDS011;53908;51.464;-2.588;2022-08-19T13:08:51;8.20;;;1.88;;
66987;SDS011;53908;51.464;-2.588;2022-08-19T13:11:17;10.60;;;2.17;;
66987;SDS011;53908;51.464;-2.588;2022-08-19T13:13:45;7.43;;;1.95;;
66987;SDS011;53908;51.464;-2.588;2022-08-19T13:16:12;7.45;;;1.90;;
66987;SDS011;53908;51.464;-2.588;2022-08-19T13:18:38;7.88;;;1.70;;
66987;SDS011;53908;51.464;-2.588;2022-08-19T13:21:06;9.48;;;2.03;;
66987;SDS011;53908;51.464;-2.588;2022-08-19T13:23:33;10.02;;;1.98;;
66987;SDS011;53908;51.464;-2.588;2022-08-19T13:26:00;10.13;;;2.00;;
66987;SDS011;53908;51.464;-2.588;2022-08-19T13:28:28;11.07;;;1.45;;
66987;SDS011;53908;51.464;-2.588;2022-08-19T13:31:20;6.97;;;2.03;;
66987;SDS011;53908;51.464;-2.588;2022-08-19T13:34:05;7.85;;;2.08;;
66987;SDS011;53908;51.464;-2.588;2022-08-19T13:36:32;10.55;;;2.20;;
66987;SDS011;53908;51.464;-2.588;2022-08-19T13:38:58;6.40;;;1.80;;
66987;SDS011;53908;51.464;-2.588;2022-08-19T13:41:24;12.30;;;1.80;;
66987;SDS011;53908;51.464;-2.588;2022-08-19T13:43:50;9.32;;;1.85;;
66987;SDS011;53908;51.464;-2.588;2022-08-19T13:46:15;7.45;;;2.17;;
66987;SDS011;53908;51.464;-2.588;2022-08-19T13:48:41;7.95;;;1.98;;
66987;SDS011;53908;51.464;-2.588;2022-08-19T13:51:07;8.82;;;1.80;;
66987;SDS011;53908;51.464;-2.588;2022-08-19T13:53:38;7.57;;;1.85;;
66987;SDS011;53908;51.464;-2.588;2022-08-19T13:56:05;6.63;;;1.42;;
66987;SDS011;53908;51.464;-2.588;2022-08-19T13:58:33;6.50;;;1.77;;
66987;SDS011;53908;51.464;-2.588;2022-08-19T14:00:58;3.53;;;1.17;;
66987;SDS011;53908;51.464;-2.588;2022-08-19T14:03:24;7.43;;;1.60;;
66987;SDS011;53908;51.464;-2.588;2022-08-19T14:05:50;6.38;;;1.70;;
66987;SDS011;53908;51.464;-2.588;2022-08-19T14:08:16;8.07;;;1.45;;
66987;SDS011;53908;51.464;-2.588;2022-08-19T14:10:42;4.32;;;1.50;;
66987;SDS011;53908;51.464;-2.588;2022-08-19T14:13:09;5.78;;;1.80;;
66987;SDS011;53908;51.464;-2.588;2022-08-19T14:15:35;4.88;;;1.50;;
66987;SDS011;53908;51.464;-2.588;2022-08-19T14:18:02;5.38;;;1.35;;
66987;SDS011;53908;51.464;-2.588;2022-08-19T14:20:28;5.50;;;1.17;;
66987;SDS011;53908;51.464;-2.588;2022-08-19T14:22:53;6.80;;;1.40;;
66987;SDS011;53908;51.464;-2.588;2022-08-19T14:25:24;6.63;;;1.52;;
66987;SDS011;53908;51.464;-2.588;2022-08-19T14:27:51;3.37;;;1.10;;
66987;SDS011;53908;51.464;-2.588;2022-08-19T14:30:18;3.47;;;1.23;;
66987;SDS011;53908;51.464;-2.588;2022-08-19T14:32:50;5.97;;;1.30;;
66987;SDS011;53908;51.464;-2.588;2022-08-19T14:35:16;6.45;;;1.35;;
66987;SDS011;53908;51.464;-2.588;2022-08-19T14:37:43;6.55;;;1.60;;
66987;SDS011;53908;51.464;-2.588;2022-08-19T14:40:10;11.60;;;1.33;;
66987;SDS011;53908;51.464;-2.588;2022-08-19T14:42:36;7.55;;;2.03;;
66987;SDS011;53908;51.464;-2.588;2022-08-19T14:45:02;4.20;;;1.30;;
66987;SDS011;53908;51.464;-2.588;2022-08-19T14:47:29;6.47;;;1.42;;